Ana Sayfa
METAR-TAF:

METAR-TAF

Havaalanları :

La Grande/Union County Airport

La Grande, Oregon, Amerika Birleşik Devletleri

Enlem: 45-17N, Boylam: 118-00W, yükseklik: 827 m

Güncel hava durumu gözlemi

Rapor saat 20:56 UTC de 1 saat ve 13 dakika önce yapıldı.
Rüzgar batıdan 9 kt ve 18 kt'a kadar ani rüzgarlar
Sıcaklık 19°C
Nem 26%
Basınç 1016 hPa
Görüş mesafesi: 16.1 km
8000 ft yükseklikte az bulutlu

METAR: KLGD 212056Z AUTO 28009G18KT 10SM FEW080 19/M01 A3000 RMK AO2 SLP156 T01891006 58020

Saat: 15:09 (22:09 UTC)


TAF: eksik

4.000'den fazla havaalanı için hava durumu gözlemleri ve tahminleri (METAR ve TAF raporları).

Kullanılabilir istasyonlar harita üzerinde sarı ve kırmızı noktalarla gösterilir.

İstasyonun adını görmek için fareyi noktanın üzerinde gezdirin.

Sonrasında hava gözlem ve tahminlerini görmek için tıklayın.

Haritayı değiştirmek için: yaklaştırmak için siyah artı işaretli yeşil düğmeye ve uzaklaştırmak için de eksi işaretli düğmeye hızla tıklayın; bitişik haritalar için yeşil okları kullanın.


METAR-TAF: